sensor_id;sensor_type;location;lat;lon;timestamp;temperature;humidity
12156;DHT22;6141;49.092;8.516;2023-08-24T00:01:28;23.40;35.30
12156;DHT22;6141;49.092;8.516;2023-08-24T00:04:17;23.00;36.80
12156;DHT22;6141;49.092;8.516;2023-08-24T00:07:05;23.00;36.90
12156;DHT22;6141;49.092;8.516;2023-08-24T00:09:53;23.10;36.70
12156;DHT22;6141;49.092;8.516;2023-08-24T00:12:42;22.80;36.80
12156;DHT22;6141;49.092;8.516;2023-08-24T00:15:31;22.80;34.80
12156;DHT22;6141;49.092;8.516;2023-08-24T00:18:20;22.80;35.20
12156;DHT22;6141;49.092;8.516;2023-08-24T00:21:09;22.90;35.00
12156;DHT22;6141;49.092;8.516;2023-08-24T00:23:57;22.90;33.30
12156;DHT22;6141;49.092;8.516;2023-08-24T00:26:46;23.00;33.90
12156;DHT22;6141;49.092;8.516;2023-08-24T00:29:35;23.20;34.40
12156;DHT22;6141;49.092;8.516;2023-08-24T00:32:24;23.40;33.50
12156;DHT22;6141;49.092;8.516;2023-08-24T00:35:13;23.70;32.80
12156;DHT22;6141;49.092;8.516;2023-08-24T00:38:01;23.60;32.70
12156;DHT22;6141;49.092;8.516;2023-08-24T00:40:50;23.70;32.60
12156;DHT22;6141;49.092;8.516;2023-08-24T00:43:40;23.80;31.30
12156;DHT22;6141;49.092;8.516;2023-08-24T00:46:29;23.70;30.20
12156;DHT22;6141;49.092;8.516;2023-08-24T00:49:19;23.60;29.70
12156;DHT22;6141;49.092;8.516;2023-08-24T00:52:08;23.50;29.80
12156;DHT22;6141;49.092;8.516;2023-08-24T00:54:56;23.60;30.10
12156;DHT22;6141;49.092;8.516;2023-08-24T00:57:45;23.60;30.10
12156;DHT22;6141;49.092;8.516;2023-08-24T01:00:35;23.50;30.70
12156;DHT22;6141;49.092;8.516;2023-08-24T01:03:23;23.50;30.70
12156;DHT22;6141;49.092;8.516;2023-08-24T01:06:14;23.70;30.00
12156;DHT22;6141;49.092;8.516;2023-08-24T01:09:06;23.90;29.40
12156;DHT22;6141;49.092;8.516;2023-08-24T01:12:00;24.30;28.20
12156;DHT22;6141;49.092;8.516;2023-08-24T01:14:55;24.30;27.80
12156;DHT22;6141;49.092;8.516;2023-08-24T01:17:46;24.40;27.60
12156;DHT22;6141;49.092;8.516;2023-08-24T01:20:37;24.60;27.80
12156;DHT22;6141;49.092;8.516;2023-08-24T01:23:36;24.60;27.70
12156;DHT22;6141;49.092;8.516;2023-08-24T01:26:26;24.70;27.80
12156;DHT22;6141;49.092;8.516;2023-08-24T01:29:17;24.80;27.10
12156;DHT22;6141;49.092;8.516;2023-08-24T01:32:08;24.70;27.90
12156;DHT22;6141;49.092;8.516;2023-08-24T01:34:57;24.70;27.80
12156;DHT22;6141;49.092;8.516;2023-08-24T01:37:45;24.40;28.10
12156;DHT22;6141;49.092;8.516;2023-08-24T01:40:39;24.40;28.40
12156;DHT22;6141;49.092;8.516;2023-08-24T01:43:32;24.30;28.30
12156;DHT22;6141;49.092;8.516;2023-08-24T01:46:31;24.20;29.00
12156;DHT22;6141;49.092;8.516;2023-08-24T01:49:22;23.90;29.90
12156;DHT22;6141;49.092;8.516;2023-08-24T01:52:12;24.00;29.70
12156;DHT22;6141;49.092;8.516;2023-08-24T01:55:02;24.30;29.10
12156;DHT22;6141;49.092;8.516;2023-08-24T01:57:51;24.30;28.60
12156;DHT22;6141;49.092;8.516;2023-08-24T02:00:41;24.50;27.70
12156;DHT22;6141;49.092;8.516;2023-08-24T02:03:29;24.70;27.50
12156;DHT22;6141;49.092;8.516;2023-08-24T02:06:18;24.80;27.50
12156;DHT22;6141;49.092;8.516;2023-08-24T02:09:08;24.80;27.60
12156;DHT22;6141;49.092;8.516;2023-08-24T02:11:56;24.90;26.60
12156;DHT22;6141;49.092;8.516;2023-08-24T02:14:45;24.90;27.60
12156;DHT22;6141;49.092;8.516;2023-08-24T02:17:37;24.50;28.40
12156;DHT22;6141;49.092;8.516;2023-08-24T02:20:25;24.50;28.50
12156;DHT22;6141;49.092;8.516;2023-08-24T02:23:14;24.50;27.90
12156;DHT22;6141;49.092;8.516;2023-08-24T02:26:02;24.50;27.70
12156;DHT22;6141;49.092;8.516;2023-08-24T02:28:51;24.60;27.80
12156;DHT22;6141;49.092;8.516;2023-08-24T02:31:39;24.70;27.90
12156;DHT22;6141;49.092;8.516;2023-08-24T02:34:29;24.50;27.70
12156;DHT22;6141;49.092;8.516;2023-08-24T02:37:17;24.70;27.20
12156;DHT22;6141;49.092;8.516;2023-08-24T02:40:07;24.70;26.40
12156;DHT22;6141;49.092;8.516;2023-08-24T02:42:56;24.20;27.50
12156;DHT22;6141;49.092;8.516;2023-08-24T02:45:44;23.20;30.20
12156;DHT22;6141;49.092;8.516;2023-08-24T02:48:33;23.20;30.50
12156;DHT22;6141;49.092;8.516;2023-08-24T02:51:23;23.40;30.00
12156;DHT22;6141;49.092;8.516;2023-08-24T02:54:12;23.70;29.30
12156;DHT22;6141;49.092;8.516;2023-08-24T02:57:01;23.80;29.00
12156;DHT22;6141;49.092;8.516;2023-08-24T02:59:49;24.00;28.30
12156;DHT22;6141;49.092;8.516;2023-08-24T03:02:38;23.80;28.90
12156;DHT22;6141;49.092;8.516;2023-08-24T03:05:28;23.80;29.00
12156;DHT22;6141;49.092;8.516;2023-08-24T03:08:17;23.50;29.40
12156;DHT22;6141;49.092;8.516;2023-08-24T03:11:06;23.20;30.20
12156;DHT22;6141;49.092;8.516;2023-08-24T03:13:54;22.60;31.70
12156;DHT22;6141;49.092;8.516;2023-08-24T03:16:43;22.70;31.80
12156;DHT22;6141;49.092;8.516;2023-08-24T03:19:31;22.70;32.50
12156;DHT22;6141;49.092;8.516;2023-08-24T03:22:20;22.80;31.90
12156;DHT22;6141;49.092;8.516;2023-08-24T03:25:09;23.10;31.30
12156;DHT22;6141;49.092;8.516;2023-08-24T03:27:59;23.00;32.10
12156;DHT22;6141;49.092;8.516;2023-08-24T03:30:49;23.00;31.20
12156;DHT22;6141;49.092;8.516;2023-08-24T03:33:39;22.80;31.90
12156;DHT22;6141;49.092;8.516;2023-08-24T03:36:28;23.00;31.50
12156;DHT22;6141;49.092;8.516;2023-08-24T03:39:16;23.10;31.70
12156;DHT22;6141;49.092;8.516;2023-08-24T03:42:06;23.10;30.80
12156;DHT22;6141;49.092;8.516;2023-08-24T03:44:55;23.00;32.10
12156;DHT22;6141;49.092;8.516;2023-08-24T03:47:43;22.80;31.90
12156;DHT22;6141;49.092;8.516;2023-08-24T03:50:32;22.20;34.70
12156;DHT22;6141;49.092;8.516;2023-08-24T03:53:20;22.30;34.00
12156;DHT22;6141;49.092;8.516;2023-08-24T03:56:09;22.60;34.00
12156;DHT22;6141;49.092;8.516;2023-08-24T03:58:59;22.60;32.70
12156;DHT22;6141;49.092;8.516;2023-08-24T04:01:48;22.80;31.90
12156;DHT22;6141;49.092;8.516;2023-08-24T04:04:37;22.60;33.90
12156;DHT22;6141;49.092;8.516;2023-08-24T04:07:26;22.70;31.80
12156;DHT22;6141;49.092;8.516;2023-08-24T04:10:14;22.70;32.10
12156;DHT22;6141;49.092;8.516;2023-08-24T04:13:03;22.90;32.00
12156;DHT22;6141;49.092;8.516;2023-08-24T04:15:53;22.80;31.90
12156;DHT22;6141;49.092;8.516;2023-08-24T04:18:42;22.90;31.00
12156;DHT22;6141;49.092;8.516;2023-08-24T04:21:30;23.00;32.10
12156;DHT22;6141;49.092;8.516;2023-08-24T04:24:18;23.10;31.90
12156;DHT22;6141;49.092;8.516;2023-08-24T04:27:07;23.30;31.70
12156;DHT22;6141;49.092;8.516;2023-08-24T04:29:55;23.40;32.10
12156;DHT22;6141;49.092;8.516;2023-08-24T04:32:45;23.10;31.30
12156;DHT22;6141;49.092;8.516;2023-08-24T04:35:34;23.00;30.90
12156;DHT22;6141;49.092;8.516;2023-08-24T04:38:23;22.70;31.40
12156;DHT22;6141;49.092;8.516;2023-08-24T04:41:11;22.30;32.40
12156;DHT22;6141;49.092;8.516;2023-08-24T04:43:59;22.30;34.00
12156;DHT22;6141;49.092;8.516;2023-08-24T04:46:48;22.20;33.70
12156;DHT22;6141;49.092;8.516;2023-08-24T04:49:38;22.50;32.60
12156;DHT22;6141;49.092;8.516;2023-08-24T04:52:26;22.80;32.70
12156;DHT22;6141;49.092;8.516;2023-08-24T04:55:15;23.00;32.10
12156;DHT22;6141;49.092;8.516;2023-08-24T04:58:03;22.80;32.40
12156;DHT22;6141;49.092;8.516;2023-08-24T05:00:52;22.60;33.30
12156;DHT22;6141;49.092;8.516;2023-08-24T05:03:40;22.80;33.20
12156;DHT22;6141;49.092;8.516;2023-08-24T05:06:30;22.80;31.90
12156;DHT22;6141;49.092;8.516;2023-08-24T05:09:19;22.70;32.40
12156;DHT22;6141;49.092;8.516;2023-08-24T05:12:07;22.60;31.70
12156;DHT22;6141;49.092;8.516;2023-08-24T05:14:56;22.40;32.50
12156;DHT22;6141;49.092;8.516;2023-08-24T05:17:44;22.10;33.60
12156;DHT22;6141;49.092;8.516;2023-08-24T05:20:33;22.00;34.50
12156;DHT22;6141;49.092;8.516;2023-08-24T05:23:22;22.10;34.60
12156;DHT22;6141;49.092;8.516;2023-08-24T05:26:11;22.30;34.80
12156;DHT22;6141;49.092;8.516;2023-08-24T05:28:59;22.50;33.90
12156;DHT22;6141;49.092;8.516;2023-08-24T05:31:47;22.80;32.60
12156;DHT22;6141;49.092;8.516;2023-08-24T05:34:36;23.10;32.20
12156;DHT22;6141;49.092;8.516;2023-08-24T05:37:24;23.40;31.20
12156;DHT22;6141;49.092;8.516;2023-08-24T05:40:14;23.60;30.00
12156;DHT22;6141;49.092;8.516;2023-08-24T05:43:03;23.80;30.00
12156;DHT22;6141;49.092;8.516;2023-08-24T05:45:51;23.80;30.50
12156;DHT22;6141;49.092;8.516;2023-08-24T05:48:40;24.00;30.60
12156;DHT22;6141;49.092;8.516;2023-08-24T05:51:29;24.20;30.30
12156;DHT22;6141;49.092;8.516;2023-08-24T05:54:17;24.20;29.20
12156;DHT22;6141;49.092;8.516;2023-08-24T05:57:08;23.90;29.20
12156;DHT22;6141;49.092;8.516;2023-08-24T05:59:56;23.60;30.20
12156;DHT22;6141;49.092;8.516;2023-08-24T06:02:44;23.30;30.80
12156;DHT22;6141;49.092;8.516;2023-08-24T06:05:33;23.10;31.20
12156;DHT22;6141;49.092;8.516;2023-08-24T06:08:22;23.00;31.30
12156;DHT22;6141;49.092;8.516;2023-08-24T06:11:10;22.80;32.90
12156;DHT22;6141;49.092;8.516;2023-08-24T06:14:00;22.90;33.10
12156;DHT22;6141;49.092;8.516;2023-08-24T06:16:48;22.80;31.90
12156;DHT22;6141;49.092;8.516;2023-08-24T06:19:36;22.70;31.90
12156;DHT22;6141;49.092;8.516;2023-08-24T06:22:25;22.90;32.00
12156;DHT22;6141;49.092;8.516;2023-08-24T06:25:13;22.90;32.00
12156;DHT22;6141;49.092;8.516;2023-08-24T06:28:02;22.70;31.80
12156;DHT22;6141;49.092;8.516;2023-08-24T06:30:55;22.80;31.90
12156;DHT22;6141;49.092;8.516;2023-08-24T06:33:43;22.90;30.50
12156;DHT22;6141;49.092;8.516;2023-08-24T06:36:31;22.90;30.00
12156;DHT22;6141;49.092;8.516;2023-08-24T06:39:20;23.10;30.20
12156;DHT22;6141;49.092;8.516;2023-08-24T06:42:08;23.10;28.50
12156;DHT22;6141;49.092;8.516;2023-08-24T06:44:57;23.00;29.60
12156;DHT22;6141;49.092;8.516;2023-08-24T06:47:46;22.90;30.10
12156;DHT22;6141;49.092;8.516;2023-08-24T06:50:36;22.90;30.00
12156;DHT22;6141;49.092;8.516;2023-08-24T06:53:24;22.80;29.30
12156;DHT22;6141;49.092;8.516;2023-08-24T06:56:13;22.80;29.00
12156;DHT22;6141;49.092;8.516;2023-08-24T06:59:02;23.00;29.40
12156;DHT22;6141;49.092;8.516;2023-08-24T07:01:51;22.90;28.70
12156;DHT22;6141;49.092;8.516;2023-08-24T07:04:41;23.20;28.90
12156;DHT22;6141;49.092;8.516;2023-08-24T07:07:29;23.30;29.20
12156;DHT22;6141;49.092;8.516;2023-08-24T07:10:18;23.50;28.40
12156;DHT22;6141;49.092;8.516;2023-08-24T07:13:07;23.70;27.70
12156;DHT22;6141;49.092;8.516;2023-08-24T07:15:56;24.10;27.40
12156;DHT22;6141;49.092;8.516;2023-08-24T07:18:44;24.40;27.30
12156;DHT22;6141;49.092;8.516;2023-08-24T07:21:34;24.70;26.30
12156;DHT22;6141;49.092;8.516;2023-08-24T07:24:22;24.90;25.50
12156;DHT22;6141;49.092;8.516;2023-08-24T07:27:30;25.20;24.80
12156;DHT22;6141;49.092;8.516;2023-08-24T07:30:18;25.40;24.50
12156;DHT22;6141;49.092;8.516;2023-08-24T07:33:20;25.70;23.20
12156;DHT22;6141;49.092;8.516;2023-08-24T07:36:09;25.80;23.30
12156;DHT22;6141;49.092;8.516;2023-08-24T07:38:59;25.90;22.20
12156;DHT22;6141;49.092;8.516;2023-08-24T07:41:47;26.10;21.80
12156;DHT22;6141;49.092;8.516;2023-08-24T07:44:35;26.20;21.30
12156;DHT22;6141;49.092;8.516;2023-08-24T07:47:24;26.20;20.80
12156;DHT22;6141;49.092;8.516;2023-08-24T07:50:12;26.30;22.00
12156;DHT22;6141;49.092;8.516;2023-08-24T07:53:00;26.60;20.90
12156;DHT22;6141;49.092;8.516;2023-08-24T07:55:50;26.70;20.30
12156;DHT22;6141;49.092;8.516;2023-08-24T07:58:38;26.80;19.40
12156;DHT22;6141;49.092;8.516;2023-08-24T08:01:27;26.70;19.70
12156;DHT22;6141;49.092;8.516;2023-08-24T08:04:15;26.80;19.10
12156;DHT22;6141;49.092;8.516;2023-08-24T08:07:04;26.70;19.70
12156;DHT22;6141;49.092;8.516;2023-08-24T08:09:52;26.60;19.50
12156;DHT22;6141;49.092;8.516;2023-08-24T08:12:42;26.70;19.50
12156;DHT22;6141;49.092;8.516;2023-08-24T08:15:30;26.90;19.40
12156;DHT22;6141;49.092;8.516;2023-08-24T08:18:19;26.90;20.00
12156;DHT22;6141;49.092;8.516;2023-08-24T08:21:14;27.10;20.40
12156;DHT22;6141;49.092;8.516;2023-08-24T08:24:06;27.20;20.10
12156;DHT22;6141;49.092;8.516;2023-08-24T08:26:54;27.40;19.50
12156;DHT22;6141;49.092;8.516;2023-08-24T08:29:44;27.30;18.80
12156;DHT22;6141;49.092;8.516;2023-08-24T08:32:32;27.20;20.50
12156;DHT22;6141;49.092;8.516;2023-08-24T08:35:22;27.30;18.80
12156;DHT22;6141;49.092;8.516;2023-08-24T08:38:10;27.40;18.90
12156;DHT22;6141;49.092;8.516;2023-08-24T08:41:02;27.50;18.90
12156;DHT22;6141;49.092;8.516;2023-08-24T08:43:51;27.70;18.80
12156;DHT22;6141;49.092;8.516;2023-08-24T08:46:42;28.00;19.20
12156;DHT22;6141;49.092;8.516;2023-08-24T08:49:31;28.30;17.80
12156;DHT22;6141;49.092;8.516;2023-08-24T08:52:22;28.30;18.10
12156;DHT22;6141;49.092;8.516;2023-08-24T08:55:12;28.30;18.10
12156;DHT22;6141;49.092;8.516;2023-08-24T08:58:05;28.40;17.70
12156;DHT22;6141;49.092;8.516;2023-08-24T09:00:53;28.60;17.70
12156;DHT22;6141;49.092;8.516;2023-08-24T09:03:44;28.70;18.20
12156;DHT22;6141;49.092;8.516;2023-08-24T09:06:33;28.50;17.00
12156;DHT22;6141;49.092;8.516;2023-08-24T09:09:22;28.70;17.90
12156;DHT22;6141;49.092;8.516;2023-08-24T09:12:10;28.80;17.60
12156;DHT22;6141;49.092;8.516;2023-08-24T09:14:59;28.80;17.40
12156;DHT22;6141;49.092;8.516;2023-08-24T09:17:49;29.00;17.20
12156;DHT22;6141;49.092;8.516;2023-08-24T09:20:39;28.80;17.70
12156;DHT22;6141;49.092;8.516;2023-08-24T09:23:28;29.00;17.30
12156;DHT22;6141;49.092;8.516;2023-08-24T09:26:16;29.00;17.90
12156;DHT22;6141;49.092;8.516;2023-08-24T09:29:11;29.10;17.20
12156;DHT22;6141;49.092;8.516;2023-08-24T09:32:00;29.20;17.80
12156;DHT22;6141;49.092;8.516;2023-08-24T09:34:48;29.60;19.40
12156;DHT22;6141;49.092;8.516;2023-08-24T09:37:38;29.70;16.30
12156;DHT22;6141;49.092;8.516;2023-08-24T09:40:27;29.90;17.80
12156;DHT22;6141;49.092;8.516;2023-08-24T09:43:15;29.90;16.90
12156;DHT22;6141;49.092;8.516;2023-08-24T09:46:04;29.70;15.80
12156;DHT22;6141;49.092;8.516;2023-08-24T09:48:54;29.60;16.60
12156;DHT22;6141;49.092;8.516;2023-08-24T09:51:44;29.80;17.00
12156;DHT22;6141;49.092;8.516;2023-08-24T09:54:37;30.10;17.20
12156;DHT22;6141;49.092;8.516;2023-08-24T09:57:26;30.20;15.50
12156;DHT22;6141;49.092;8.516;2023-08-24T10:00:15;30.10;15.60
12156;DHT22;6141;49.092;8.516;2023-08-24T10:03:05;30.10;15.40
12156;DHT22;6141;49.092;8.516;2023-08-24T10:05:55;30.40;16.90
12156;DHT22;6141;49.092;8.516;2023-08-24T10:08:54;30.60;16.10
12156;DHT22;6141;49.092;8.516;2023-08-24T10:11:50;30.50;15.20
12156;DHT22;6141;49.092;8.516;2023-08-24T10:14:44;30.50;16.30
12156;DHT22;6141;49.092;8.516;2023-08-24T10:17:36;30.40;15.10
12156;DHT22;6141;49.092;8.516;2023-08-24T10:20:25;30.70;16.80
12156;DHT22;6141;49.092;8.516;2023-08-24T10:23:15;30.60;15.30
12156;DHT22;6141;49.092;8.516;2023-08-24T10:26:05;30.80;15.70
12156;DHT22;6141;49.092;8.516;2023-08-24T10:28:57;30.90;17.20
12156;DHT22;6141;49.092;8.516;2023-08-24T10:31:46;31.10;15.50
12156;DHT22;6141;49.092;8.516;2023-08-24T10:34:36;31.30;16.00
12156;DHT22;6141;49.092;8.516;2023-08-24T10:37:26;31.20;15.50
12156;DHT22;6141;49.092;8.516;2023-08-24T10:40:31;31.30;15.70
12156;DHT22;6141;49.092;8.516;2023-08-24T10:43:19;31.40;16.10
12156;DHT22;6141;49.092;8.516;2023-08-24T10:46:13;31.50;15.70
12156;DHT22;6141;49.092;8.516;2023-08-24T10:49:04;31.50;15.80
12156;DHT22;6141;49.092;8.516;2023-08-24T10:51:53;31.80;16.60
12156;DHT22;6141;49.092;8.516;2023-08-24T10:54:42;31.90;15.70
12156;DHT22;6141;49.092;8.516;2023-08-24T10:57:35;32.00;13.90
12156;DHT22;6141;49.092;8.516;2023-08-24T11:00:26;31.90;15.30
12156;DHT22;6141;49.092;8.516;2023-08-24T11:03:30;32.10;15.50
12156;DHT22;6141;49.092;8.516;2023-08-24T11:06:20;32.30;14.40
12156;DHT22;6141;49.092;8.516;2023-08-24T11:09:09;32.40;13.30
12156;DHT22;6141;49.092;8.516;2023-08-24T11:12:03;32.40;13.30
12156;DHT22;6141;49.092;8.516;2023-08-24T11:14:52;32.60;12.80
12156;DHT22;6141;49.092;8.516;2023-08-24T11:17:45;32.70;14.10
12156;DHT22;6141;49.092;8.516;2023-08-24T11:20:56;32.80;12.70
12156;DHT22;6141;49.092;8.516;2023-08-24T11:23:47;33.00;14.00
12156;DHT22;6141;49.092;8.516;2023-08-24T11:26:40;33.00;12.80
12156;DHT22;6141;49.092;8.516;2023-08-24T11:29:29;33.20;12.70
12156;DHT22;6141;49.092;8.516;2023-08-24T11:32:18;33.20;12.10
12156;DHT22;6141;49.092;8.516;2023-08-24T11:35:10;33.40;14.30
12156;DHT22;6141;49.092;8.516;2023-08-24T11:38:00;33.30;13.00
12156;DHT22;6141;49.092;8.516;2023-08-24T11:40:49;33.20;13.50
12156;DHT22;6141;49.092;8.516;2023-08-24T11:43:37;33.40;11.60
12156;DHT22;6141;49.092;8.516;2023-08-24T11:46:27;33.20;12.10
12156;DHT22;6141;49.092;8.516;2023-08-24T11:49:16;33.40;13.70
12156;DHT22;6141;49.092;8.516;2023-08-24T11:52:04;33.20;12.60
12156;DHT22;6141;49.092;8.516;2023-08-24T11:54:54;33.40;12.10
12156;DHT22;6141;49.092;8.516;2023-08-24T11:57:42;33.30;11.20
12156;DHT22;6141;49.092;8.516;2023-08-24T12:00:31;33.30;12.50
12156;DHT22;6141;49.092;8.516;2023-08-24T12:03:19;33.50;11.40
12156;DHT22;6141;49.092;8.516;2023-08-24T12:06:11;33.70;11.60
12156;DHT22;6141;49.092;8.516;2023-08-24T12:09:00;33.80;11.00
12156;DHT22;6141;49.092;8.516;2023-08-24T12:11:55;33.60;11.50
12156;DHT22;6141;49.092;8.516;2023-08-24T12:14:44;33.40;11.30
12156;DHT22;6141;49.092;8.516;2023-08-24T12:17:42;33.00;11.10
12156;DHT22;6141;49.092;8.516;2023-08-24T12:20:30;33.00;13.40
12156;DHT22;6141;49.092;8.516;2023-08-24T12:23:20;33.10;12.90
12156;DHT22;6141;49.092;8.516;2023-08-24T12:26:18;33.20;12.70
12156;DHT22;6141;49.092;8.516;2023-08-24T12:29:09;33.30;12.10
12156;DHT22;6141;49.092;8.516;2023-08-24T12:31:58;33.20;12.80
12156;DHT22;6141;49.092;8.516;2023-08-24T12:34:47;33.30;12.40
12156;DHT22;6141;49.092;8.516;2023-08-24T12:37:35;33.30;13.50
12156;DHT22;6141;49.092;8.516;2023-08-24T12:40:24;33.10;13.20
12156;DHT22;6141;49.092;8.516;2023-08-24T12:43:12;33.20;14.00
12156;DHT22;6141;49.092;8.516;2023-08-24T12:46:02;33.20;14.60
12156;DHT22;6141;49.092;8.516;2023-08-24T12:48:51;33.20;13.60
12156;DHT22;6141;49.092;8.516;2023-08-24T12:51:42;33.20;13.90
12156;DHT22;6141;49.092;8.516;2023-08-24T12:54:31;33.30;14.80
12156;DHT22;6141;49.092;8.516;2023-08-24T12:57:19;33.50;15.80
12156;DHT22;6141;49.092;8.516;2023-08-24T13:00:09;33.50;12.30
12156;DHT22;6141;49.092;8.516;2023-08-24T13:02:59;33.60;14.40
12156;DHT22;6141;49.092;8.516;2023-08-24T13:05:47;33.80;15.80
12156;DHT22;6141;49.092;8.516;2023-08-24T13:08:36;33.90;13.90
12156;DHT22;6141;49.092;8.516;2023-08-24T13:11:25;34.20;13.30
12156;DHT22;6141;49.092;8.516;2023-08-24T13:14:14;34.40;11.90
12156;DHT22;6141;49.092;8.516;2023-08-24T13:17:02;34.40;11.90
12156;DHT22;6141;49.092;8.516;2023-08-24T13:19:52;34.40;12.60
12156;DHT22;6141;49.092;8.516;2023-08-24T13:22:40;34.20;11.80
12156;DHT22;6141;49.092;8.516;2023-08-24T13:25:29;34.30;12.90
12156;DHT22;6141;49.092;8.516;2023-08-24T13:28:17;34.50;12.10
12156;DHT22;6141;49.092;8.516;2023-08-24T13:31:06;34.50;12.60
12156;DHT22;6141;49.092;8.516;2023-08-24T13:33:55;34.70;12.10
12156;DHT22;6141;49.092;8.516;2023-08-24T13:36:45;34.80;12.10
12156;DHT22;6141;49.092;8.516;2023-08-24T13:39:33;35.00;13.00
12156;DHT22;6141;49.092;8.516;2023-08-24T13:42:22;34.90;11.50
12156;DHT22;6141;49.092;8.516;2023-08-24T13:45:10;34.70;12.10
12156;DHT22;6141;49.092;8.516;2023-08-24T13:47:58;34.70;12.10
12156;DHT22;6141;49.092;8.516;2023-08-24T13:50:50;34.90;12.20
12156;DHT22;6141;49.092;8.516;2023-08-24T13:53:40;34.70;12.60
12156;DHT22;6141;49.092;8.516;2023-08-24T13:56:29;34.60;14.30
12156;DHT22;6141;49.092;8.516;2023-08-24T13:59:17;34.50;12.00
12156;DHT22;6141;49.092;8.516;2023-08-24T14:02:06;34.70;12.10
12156;DHT22;6141;49.092;8.516;2023-08-24T14:04:56;34.90;12.00
12156;DHT22;6141;49.092;8.516;2023-08-24T14:07:45;34.80;10.20
12156;DHT22;6141;49.092;8.516;2023-08-24T14:10:34;34.70;10.90
12156;DHT22;6141;49.092;8.516;2023-08-24T14:13:23;34.50;14.70
12156;DHT22;6141;49.092;8.516;2023-08-24T14:16:12;34.30;14.40
12156;DHT22;6141;49.092;8.516;2023-08-24T14:19:00;33.70;13.80
12156;DHT22;6141;49.092;8.516;2023-08-24T14:21:51;33.10;13.10
12156;DHT22;6141;49.092;8.516;2023-08-24T14:24:40;32.20;14.90
12156;DHT22;6141;49.092;8.516;2023-08-24T14:27:30;31.60;20.80
12156;DHT22;6141;49.092;8.516;2023-08-24T14:30:18;29.40;31.30
12156;DHT22;6141;49.092;8.516;2023-08-24T14:33:06;28.70;39.40
12156;DHT22;6141;49.092;8.516;2023-08-24T14:35:55;28.40;41.30
12156;DHT22;6141;49.092;8.516;2023-08-24T14:38:43;28.50;41.60
12156;DHT22;6141;49.092;8.516;2023-08-24T14:41:32;28.70;39.40
12156;DHT22;6141;49.092;8.516;2023-08-24T14:44:21;28.90;41.60
12156;DHT22;6141;49.092;8.516;2023-08-24T14:47:10;28.80;38.00
12156;DHT22;6141;49.092;8.516;2023-08-24T14:49:58;28.10;37.70
12156;DHT22;6141;49.092;8.516;2023-08-24T14:52:46;28.30;41.50
12156;DHT22;6141;49.092;8.516;2023-08-24T14:55:37;28.50;43.50
12156;DHT22;6141;49.092;8.516;2023-08-24T14:58:26;28.70;41.40
12156;DHT22;6141;49.092;8.516;2023-08-24T15:01:16;28.50;40.80
12156;DHT22;6141;49.092;8.516;2023-08-24T15:04:04;28.40;43.10
12156;DHT22;6141;49.092;8.516;2023-08-24T15:06:53;28.30;42.30
12156;DHT22;6141;49.092;8.516;2023-08-24T15:09:41;28.50;40.20
12156;DHT22;6141;49.092;8.516;2023-08-24T15:12:29;28.40;39.90
12156;DHT22;6141;49.092;8.516;2023-08-24T15:15:18;28.10;39.20
12156;DHT22;6141;49.092;8.516;2023-08-24T15:18:09;27.50;39.20
12156;DHT22;6141;49.092;8.516;2023-08-24T15:20:57;27.30;43.20
12156;DHT22;6141;49.092;8.516;2023-08-24T15:23:45;27.30;42.50
12156;DHT22;6141;49.092;8.516;2023-08-24T15:26:34;27.40;43.40
12156;DHT22;6141;49.092;8.516;2023-08-24T15:29:23;27.60;44.60
12156;DHT22;6141;49.092;8.516;2023-08-24T15:32:11;27.70;41.80
12156;DHT22;6141;49.092;8.516;2023-08-24T15:35:01;27.90;43.00
12156;DHT22;6141;49.092;8.516;2023-08-24T15:37:50;28.20;41.40
12156;DHT22;6141;49.092;8.516;2023-08-24T15:40:39;28.30;42.20
12156;DHT22;6141;49.092;8.516;2023-08-24T15:43:30;28.40;40.20
12156;DHT22;6141;49.092;8.516;2023-08-24T15:46:19;28.60;38.10
12156;DHT22;6141;49.092;8.516;2023-08-24T15:49:07;28.60;38.00
12156;DHT22;6141;49.092;8.516;2023-08-24T15:51:57;28.60;37.50
12156;DHT22;6141;49.092;8.516;2023-08-24T15:54:45;28.80;36.50
12156;DHT22;6141;49.092;8.516;2023-08-24T15:57:34;28.80;36.90
12156;DHT22;6141;49.092;8.516;2023-08-24T16:00:23;28.70;37.00
12156;DHT22;6141;49.092;8.516;2023-08-24T16:03:11;28.80;37.10
12156;DHT22;6141;49.092;8.516;2023-08-24T16:05:59;28.80;37.10
12156;DHT22;6141;49.092;8.516;2023-08-24T16:08:49;28.80;38.80
12156;DHT22;6141;49.092;8.516;2023-08-24T16:11:37;28.70;37.00
12156;DHT22;6141;49.092;8.516;2023-08-24T16:14:26;28.70;36.40
12156;DHT22;6141;49.092;8.516;2023-08-24T16:17:14;28.80;37.10
12156;DHT22;6141;49.092;8.516;2023-08-24T16:20:03;28.90;35.30
12156;DHT22;6141;49.092;8.516;2023-08-24T16:22:57;28.80;35.50
12156;DHT22;6141;49.092;8.516;2023-08-24T16:25:46;28.90;37.10
12156;DHT22;6141;49.092;8.516;2023-08-24T16:28:35;29.10;36.10
12156;DHT22;6141;49.092;8.516;2023-08-24T16:31:23;29.10;35.70
12156;DHT22;6141;49.092;8.516;2023-08-24T16:34:12;28.80;34.40
12156;DHT22;6141;49.092;8.516;2023-08-24T16:37:00;28.40;35.80
12156;DHT22;6141;49.092;8.516;2023-08-24T16:39:49;28.30;37.70
12156;DHT22;6141;49.092;8.516;2023-08-24T16:42:39;28.30;38.20
12156;DHT22;6141;49.092;8.516;2023-08-24T16:45:27;28.70;38.10
12156;DHT22;6141;49.092;8.516;2023-08-24T16:48:15;28.70;36.00
12156;DHT22;6141;49.092;8.516;2023-08-24T16:51:04;29.20;33.70
12156;DHT22;6141;49.092;8.516;2023-08-24T16:53:52;29.00;35.70
12156;DHT22;6141;49.092;8.516;2023-08-24T16:56:41;28.20;39.90
12156;DHT22;6141;49.092;8.516;2023-08-24T16:59:30;27.40;45.10
12156;DHT22;6141;49.092;8.516;2023-08-24T17:02:19;27.20;45.60
12156;DHT22;6141;49.092;8.516;2023-08-24T17:05:08;27.20;45.30
12156;DHT22;6141;49.092;8.516;2023-08-24T17:08:04;27.00;46.00
12156;DHT22;6141;49.092;8.516;2023-08-24T17:10:52;27.10;45.70
12156;DHT22;6141;49.092;8.516;2023-08-24T17:13:41;27.20;44.50
12156;DHT22;6141;49.092;8.516;2023-08-24T17:16:30;27.40;43.90
12156;DHT22;6141;49.092;8.516;2023-08-24T17:19:19;27.70;42.80
12156;DHT22;6141;49.092;8.516;2023-08-24T17:22:07;27.70;43.90
12156;DHT22;6141;49.092;8.516;2023-08-24T17:24:56;27.80;43.40
12156;DHT22;6141;49.092;8.516;2023-08-24T17:27:45;27.90;43.30
12156;DHT22;6141;49.092;8.516;2023-08-24T17:30:33;27.80;42.90
12156;DHT22;6141;49.092;8.516;2023-08-24T17:33:23;27.70;44.20
12156;DHT22;6141;49.092;8.516;2023-08-24T17:36:11;27.70;44.90
12156;DHT22;6141;49.092;8.516;2023-08-24T17:39:00;27.80;42.90
12156;DHT22;6141;49.092;8.516;2023-08-24T17:41:54;27.70;39.50
12156;DHT22;6141;49.092;8.516;2023-08-24T17:44:43;27.70;40.90
12156;DHT22;6141;49.092;8.516;2023-08-24T17:47:31;27.30;41.60
12156;DHT22;6141;49.092;8.516;2023-08-24T17:50:21;27.30;42.60
12156;DHT22;6141;49.092;8.516;2023-08-24T17:53:10;27.30;41.70
12156;DHT22;6141;49.092;8.516;2023-08-24T17:55:59;27.20;42.40
12156;DHT22;6141;49.092;8.516;2023-08-24T17:58:47;27.30;41.30
12156;DHT22;6141;49.092;8.516;2023-08-24T18:01:35;27.70;38.90
12156;DHT22;6141;49.092;8.516;2023-08-24T18:04:24;28.20;36.50
12156;DHT22;6141;49.092;8.516;2023-08-24T18:07:13;28.10;35.50